sensor_id;sensor_type;location;lat;lon;timestamp;P1;durP1;ratioP1;P2;durP2;ratioP2
15228;SDS011;7717;47.792;12.076;2022-07-10T00:02:12;2.13;;;2.03;;
15228;SDS011;7717;47.792;12.076;2022-07-10T00:04:37;3.17;;;1.90;;
15228;SDS011;7717;47.792;12.076;2022-07-10T00:07:02;4.33;;;1.87;;
15228;SDS011;7717;47.792;12.076;2022-07-10T00:09:29;1.90;;;1.80;;
15228;SDS011;7717;47.792;12.076;2022-07-10T00:11:54;2.37;;;1.90;;
15228;SDS011;7717;47.792;12.076;2022-07-10T00:14:19;2.43;;;2.13;;
15228;SDS011;7717;47.792;12.076;2022-07-10T00:16:45;3.10;;;1.80;;
15228;SDS011;7717;47.792;12.076;2022-07-10T00:19:10;2.53;;;2.17;;
15228;SDS011;7717;47.792;12.076;2022-07-10T00:21:36;2.03;;;1.70;;
15228;SDS011;7717;47.792;12.076;2022-07-10T00:24:01;2.23;;;2.10;;
15228;SDS011;7717;47.792;12.076;2022-07-10T00:26:26;2.60;;;2.27;;
15228;SDS011;7717;47.792;12.076;2022-07-10T00:28:52;2.33;;;2.10;;
15228;SDS011;7717;47.792;12.076;2022-07-10T00:31:17;1.93;;;1.73;;
15228;SDS011;7717;47.792;12.076;2022-07-10T00:33:42;2.10;;;1.90;;
15228;SDS011;7717;47.792;12.076;2022-07-10T00:36:08;2.70;;;2.50;;
15228;SDS011;7717;47.792;12.076;2022-07-10T00:38:33;1.83;;;1.73;;
15228;SDS011;7717;47.792;12.076;2022-07-10T00:40:58;3.10;;;2.00;;
15228;SDS011;7717;47.792;12.076;2022-07-10T00:43:23;4.17;;;2.40;;
15228;SDS011;7717;47.792;12.076;2022-07-10T00:45:49;2.17;;;1.97;;
15228;SDS011;7717;47.792;12.076;2022-07-10T00:48:14;2.97;;;2.10;;
15228;SDS011;7717;47.792;12.076;2022-07-10T00:50:40;2.37;;;2.17;;
15228;SDS011;7717;47.792;12.076;2022-07-10T00:53:05;2.77;;;2.57;;
15228;SDS011;7717;47.792;12.076;2022-07-10T00:55:30;3.40;;;1.97;;
15228;SDS011;7717;47.792;12.076;2022-07-10T00:57:57;2.23;;;2.07;;
15228;SDS011;7717;47.792;12.076;2022-07-10T01:00:23;2.10;;;2.00;;
15228;SDS011;7717;47.792;12.076;2022-07-10T01:02:49;3.10;;;1.70;;
15228;SDS011;7717;47.792;12.076;2022-07-10T01:05:14;2.80;;;2.00;;
15228;SDS011;7717;47.792;12.076;2022-07-10T01:07:39;2.63;;;1.93;;
15228;SDS011;7717;47.792;12.076;2022-07-10T01:10:05;5.87;;;2.13;;
15228;SDS011;7717;47.792;12.076;2022-07-10T01:12:30;2.27;;;2.03;;
15228;SDS011;7717;47.792;12.076;2022-07-10T01:14:56;2.30;;;1.90;;
15228;SDS011;7717;47.792;12.076;2022-07-10T01:17:21;2.57;;;1.80;;
15228;SDS011;7717;47.792;12.076;2022-07-10T01:19:47;4.97;;;2.20;;
15228;SDS011;7717;47.792;12.076;2022-07-10T01:22:12;3.10;;;1.97;;
15228;SDS011;7717;47.792;12.076;2022-07-10T01:24:38;3.90;;;1.73;;
15228;SDS011;7717;47.792;12.076;2022-07-10T01:27:03;2.13;;;1.73;;
15228;SDS011;7717;47.792;12.076;2022-07-10T01:29:29;1.90;;;1.80;;
15228;SDS011;7717;47.792;12.076;2022-07-10T01:31:54;2.57;;;2.20;;
15228;SDS011;7717;47.792;12.076;2022-07-10T01:34:19;2.97;;;2.07;;
15228;SDS011;7717;47.792;12.076;2022-07-10T01:36:45;2.23;;;1.90;;
15228;SDS011;7717;47.792;12.076;2022-07-10T01:39:10;3.00;;;2.07;;
15228;SDS011;7717;47.792;12.076;2022-07-10T01:41:35;2.33;;;2.13;;
15228;SDS011;7717;47.792;12.076;2022-07-10T01:44:01;2.53;;;2.33;;
15228;SDS011;7717;47.792;12.076;2022-07-10T01:46:26;2.23;;;2.03;;
15228;SDS011;7717;47.792;12.076;2022-07-10T01:48:51;3.60;;;2.97;;
15228;SDS011;7717;47.792;12.076;2022-07-10T01:51:17;3.40;;;3.10;;
15228;SDS011;7717;47.792;12.076;2022-07-10T01:53:42;3.50;;;3.20;;
15228;SDS011;7717;47.792;12.076;2022-07-10T01:56:09;4.53;;;3.57;;
15228;SDS011;7717;47.792;12.076;2022-07-10T01:58:34;4.80;;;3.70;;
15228;SDS011;7717;47.792;12.076;2022-07-10T02:01:00;4.87;;;3.47;;
15228;SDS011;7717;47.792;12.076;2022-07-10T02:03:26;6.03;;;4.00;;
15228;SDS011;7717;47.792;12.076;2022-07-10T02:06:11;5.30;;;4.10;;
15228;SDS011;7717;47.792;12.076;2022-07-10T02:08:36;5.50;;;5.00;;
15228;SDS011;7717;47.792;12.076;2022-07-10T02:11:02;5.27;;;4.87;;
15228;SDS011;7717;47.792;12.076;2022-07-10T02:13:27;6.80;;;4.60;;
15228;SDS011;7717;47.792;12.076;2022-07-10T02:15:55;5.00;;;4.60;;
15228;SDS011;7717;47.792;12.076;2022-07-10T02:18:21;5.17;;;4.67;;
15228;SDS011;7717;47.792;12.076;2022-07-10T02:20:46;4.50;;;4.10;;
15228;SDS011;7717;47.792;12.076;2022-07-10T02:23:12;5.00;;;4.60;;
15228;SDS011;7717;47.792;12.076;2022-07-10T02:25:37;6.87;;;5.20;;
15228;SDS011;7717;47.792;12.076;2022-07-10T02:28:02;5.20;;;4.70;;
15228;SDS011;7717;47.792;12.076;2022-07-10T02:30:28;5.43;;;4.77;;
15228;SDS011;7717;47.792;12.076;2022-07-10T02:32:53;5.60;;;5.10;;
15228;SDS011;7717;47.792;12.076;2022-07-10T02:35:19;6.13;;;5.67;;
15228;SDS011;7717;47.792;12.076;2022-07-10T02:37:44;5.60;;;5.10;;
15228;SDS011;7717;47.792;12.076;2022-07-10T02:40:09;5.50;;;4.97;;
15228;SDS011;7717;47.792;12.076;2022-07-10T02:42:35;6.27;;;5.67;;
15228;SDS011;7717;47.792;12.076;2022-07-10T02:45:00;5.73;;;5.33;;
15228;SDS011;7717;47.792;12.076;2022-07-10T02:47:25;5.50;;;5.10;;
15228;SDS011;7717;47.792;12.076;2022-07-10T02:49:50;7.13;;;5.37;;
15228;SDS011;7717;47.792;12.076;2022-07-10T02:52:16;5.83;;;5.33;;
15228;SDS011;7717;47.792;12.076;2022-07-10T02:54:41;5.63;;;5.13;;
15228;SDS011;7717;47.792;12.076;2022-07-10T02:57:06;6.33;;;5.83;;
15228;SDS011;7717;47.792;12.076;2022-07-10T02:59:32;6.47;;;5.87;;
15228;SDS011;7717;47.792;12.076;2022-07-10T03:01:57;5.87;;;5.37;;
15228;SDS011;7717;47.792;12.076;2022-07-10T03:04:22;6.03;;;5.50;;
15228;SDS011;7717;47.792;12.076;2022-07-10T03:06:47;7.37;;;6.53;;
15228;SDS011;7717;47.792;12.076;2022-07-10T03:09:13;7.17;;;5.90;;
15228;SDS011;7717;47.792;12.076;2022-07-10T03:11:38;6.27;;;5.67;;
15228;SDS011;7717;47.792;12.076;2022-07-10T03:14:03;6.33;;;5.83;;
15228;SDS011;7717;47.792;12.076;2022-07-10T03:16:29;6.47;;;5.90;;
15228;SDS011;7717;47.792;12.076;2022-07-10T03:18:54;7.40;;;6.80;;
15228;SDS011;7717;47.792;12.076;2022-07-10T03:21:20;7.73;;;6.93;;
15228;SDS011;7717;47.792;12.076;2022-07-10T03:23:45;7.10;;;6.60;;
15228;SDS011;7717;47.792;12.076;2022-07-10T03:26:10;7.80;;;7.10;;
15228;SDS011;7717;47.792;12.076;2022-07-10T03:28:35;6.90;;;6.30;;
15228;SDS011;7717;47.792;12.076;2022-07-10T03:31:01;6.97;;;6.37;;
15228;SDS011;7717;47.792;12.076;2022-07-10T03:33:27;7.23;;;6.70;;
15228;SDS011;7717;47.792;12.076;2022-07-10T03:35:52;7.47;;;6.77;;
15228;SDS011;7717;47.792;12.076;2022-07-10T03:38:17;7.60;;;6.90;;
15228;SDS011;7717;47.792;12.076;2022-07-10T03:40:43;7.57;;;6.87;;
15228;SDS011;7717;47.792;12.076;2022-07-10T03:43:10;7.73;;;6.93;;
15228;SDS011;7717;47.792;12.076;2022-07-10T03:45:35;7.53;;;6.93;;
15228;SDS011;7717;47.792;12.076;2022-07-10T03:48:01;8.33;;;7.40;;
15228;SDS011;7717;47.792;12.076;2022-07-10T03:50:26;8.50;;;7.77;;
15228;SDS011;7717;47.792;12.076;2022-07-10T03:52:51;8.83;;;6.93;;
15228;SDS011;7717;47.792;12.076;2022-07-10T03:55:16;8.67;;;7.87;;
15228;SDS011;7717;47.792;12.076;2022-07-10T03:57:42;8.67;;;7.83;;
15228;SDS011;7717;47.792;12.076;2022-07-10T04:00:26;8.23;;;7.57;;
15228;SDS011;7717;47.792;12.076;2022-07-10T04:02:55;8.57;;;7.77;;
15228;SDS011;7717;47.792;12.076;2022-07-10T04:05:21;8.40;;;7.50;;
15228;SDS011;7717;47.792;12.076;2022-07-10T04:07:46;8.23;;;7.63;;
15228;SDS011;7717;47.792;12.076;2022-07-10T04:10:11;8.33;;;7.50;;
15228;SDS011;7717;47.792;12.076;2022-07-10T04:12:37;8.60;;;7.90;;
15228;SDS011;7717;47.792;12.076;2022-07-10T04:15:02;7.77;;;7.07;;
15228;SDS011;7717;47.792;12.076;2022-07-10T04:17:27;8.23;;;7.43;;
15228;SDS011;7717;47.792;12.076;2022-07-10T04:19:53;7.87;;;7.17;;
15228;SDS011;7717;47.792;12.076;2022-07-10T04:22:19;7.70;;;7.00;;
15228;SDS011;7717;47.792;12.076;2022-07-10T04:24:44;7.90;;;7.30;;
15228;SDS011;7717;47.792;12.076;2022-07-10T04:27:09;7.20;;;6.60;;
15228;SDS011;7717;47.792;12.076;2022-07-10T04:29:34;7.60;;;7.00;;
15228;SDS011;7717;47.792;12.076;2022-07-10T04:32:00;8.10;;;7.37;;
15228;SDS011;7717;47.792;12.076;2022-07-10T04:34:25;8.43;;;7.63;;
15228;SDS011;7717;47.792;12.076;2022-07-10T04:36:50;8.17;;;7.47;;
15228;SDS011;7717;47.792;12.076;2022-07-10T04:39:15;7.57;;;6.87;;
15228;SDS011;7717;47.792;12.076;2022-07-10T04:41:40;9.17;;;8.33;;
15228;SDS011;7717;47.792;12.076;2022-07-10T04:44:06;8.13;;;7.43;;
15228;SDS011;7717;47.792;12.076;2022-07-10T04:46:31;8.30;;;7.43;;
15228;SDS011;7717;47.792;12.076;2022-07-10T04:48:56;7.93;;;7.33;;
15228;SDS011;7717;47.792;12.076;2022-07-10T04:51:21;8.23;;;7.40;;
15228;SDS011;7717;47.792;12.076;2022-07-10T04:53:48;8.63;;;7.90;;
15228;SDS011;7717;47.792;12.076;2022-07-10T04:56:13;8.67;;;7.97;;
15228;SDS011;7717;47.792;12.076;2022-07-10T04:58:38;8.57;;;7.80;;
15228;SDS011;7717;47.792;12.076;2022-07-10T05:01:04;8.80;;;8.00;;
15228;SDS011;7717;47.792;12.076;2022-07-10T05:03:29;8.00;;;7.40;;
15228;SDS011;7717;47.792;12.076;2022-07-10T05:05:54;8.40;;;7.60;;
15228;SDS011;7717;47.792;12.076;2022-07-10T05:08:20;8.97;;;7.37;;
15228;SDS011;7717;47.792;12.076;2022-07-10T05:10:45;8.40;;;7.60;;
15228;SDS011;7717;47.792;12.076;2022-07-10T05:13:11;7.90;;;7.27;;
15228;SDS011;7717;47.792;12.076;2022-07-10T05:15:36;8.50;;;7.70;;
15228;SDS011;7717;47.792;12.076;2022-07-10T05:18:02;8.07;;;7.23;;
15228;SDS011;7717;47.792;12.076;2022-07-10T05:20:27;9.60;;;8.60;;
15228;SDS011;7717;47.792;12.076;2022-07-10T05:22:52;8.03;;;7.43;;
15228;SDS011;7717;47.792;12.076;2022-07-10T05:25:17;8.40;;;7.70;;
15228;SDS011;7717;47.792;12.076;2022-07-10T05:27:42;9.87;;;8.00;;
15228;SDS011;7717;47.792;12.076;2022-07-10T05:30:08;7.83;;;7.13;;
15228;SDS011;7717;47.792;12.076;2022-07-10T05:32:33;8.33;;;7.63;;
15228;SDS011;7717;47.792;12.076;2022-07-10T05:34:58;7.67;;;6.97;;
15228;SDS011;7717;47.792;12.076;2022-07-10T05:37:24;7.57;;;6.87;;
15228;SDS011;7717;47.792;12.076;2022-07-10T05:39:49;7.57;;;6.90;;
15228;SDS011;7717;47.792;12.076;2022-07-10T05:42:14;7.43;;;6.73;;
15228;SDS011;7717;47.792;12.076;2022-07-10T05:44:39;7.63;;;7.03;;
15228;SDS011;7717;47.792;12.076;2022-07-10T05:47:05;7.77;;;7.07;;
15228;SDS011;7717;47.792;12.076;2022-07-10T05:49:31;7.13;;;6.53;;
15228;SDS011;7717;47.792;12.076;2022-07-10T05:51:57;6.67;;;6.10;;
15228;SDS011;7717;47.792;12.076;2022-07-10T05:54:22;6.73;;;6.23;;
15228;SDS011;7717;47.792;12.076;2022-07-10T05:56:48;7.07;;;6.30;;
15228;SDS011;7717;47.792;12.076;2022-07-10T05:59:13;6.80;;;6.20;;
15228;SDS011;7717;47.792;12.076;2022-07-10T06:01:38;7.13;;;6.53;;
15228;SDS011;7717;47.792;12.076;2022-07-10T06:04:03;6.77;;;6.07;;
15228;SDS011;7717;47.792;12.076;2022-07-10T06:06:28;6.07;;;5.57;;
15228;SDS011;7717;47.792;12.076;2022-07-10T06:08:54;6.00;;;5.40;;
15228;SDS011;7717;47.792;12.076;2022-07-10T06:11:20;5.97;;;5.57;;
15228;SDS011;7717;47.792;12.076;2022-07-10T06:13:45;5.97;;;5.43;;
15228;SDS011;7717;47.792;12.076;2022-07-10T06:16:10;5.70;;;5.30;;
15228;SDS011;7717;47.792;12.076;2022-07-10T06:18:35;5.93;;;5.43;;
15228;SDS011;7717;47.792;12.076;2022-07-10T06:21:01;6.23;;;5.73;;
15228;SDS011;7717;47.792;12.076;2022-07-10T06:23:26;6.80;;;5.70;;
15228;SDS011;7717;47.792;12.076;2022-07-10T06:25:51;6.40;;;5.90;;
15228;SDS011;7717;47.792;12.076;2022-07-10T06:28:16;6.63;;;6.03;;
15228;SDS011;7717;47.792;12.076;2022-07-10T06:30:42;6.63;;;6.03;;
15228;SDS011;7717;47.792;12.076;2022-07-10T06:33:07;5.87;;;5.37;;
15228;SDS011;7717;47.792;12.076;2022-07-10T06:35:32;5.70;;;5.20;;
15228;SDS011;7717;47.792;12.076;2022-07-10T06:37:58;5.37;;;4.93;;
15228;SDS011;7717;47.792;12.076;2022-07-10T06:40:23;5.43;;;5.03;;
15228;SDS011;7717;47.792;12.076;2022-07-10T06:42:48;5.17;;;4.87;;
15228;SDS011;7717;47.792;12.076;2022-07-10T06:45:14;5.47;;;4.93;;
15228;SDS011;7717;47.792;12.076;2022-07-10T06:47:39;5.17;;;4.77;;
15228;SDS011;7717;47.792;12.076;2022-07-10T06:50:24;5.33;;;4.93;;
15228;SDS011;7717;47.792;12.076;2022-07-10T06:52:50;5.33;;;4.93;;
15228;SDS011;7717;47.792;12.076;2022-07-10T06:55:15;5.63;;;5.13;;
15228;SDS011;7717;47.792;12.076;2022-07-10T06:57:41;5.13;;;4.73;;
15228;SDS011;7717;47.792;12.076;2022-07-10T07:00:06;5.37;;;4.87;;
15228;SDS011;7717;47.792;12.076;2022-07-10T07:02:32;5.40;;;5.00;;
15228;SDS011;7717;47.792;12.076;2022-07-10T07:04:57;6.10;;;5.30;;
15228;SDS011;7717;47.792;12.076;2022-07-10T07:07:22;5.60;;;5.20;;
15228;SDS011;7717;47.792;12.076;2022-07-10T07:09:47;5.57;;;5.10;;
15228;SDS011;7717;47.792;12.076;2022-07-10T07:12:15;4.80;;;4.50;;
15228;SDS011;7717;47.792;12.076;2022-07-10T07:14:41;5.30;;;4.90;;
15228;SDS011;7717;47.792;12.076;2022-07-10T07:17:06;5.87;;;5.20;;
15228;SDS011;7717;47.792;12.076;2022-07-10T07:19:34;5.50;;;5.10;;
15228;SDS011;7717;47.792;12.076;2022-07-10T07:22:21;5.60;;;5.00;;
15228;SDS011;7717;47.792;12.076;2022-07-10T07:25:06;6.10;;;5.60;;
15228;SDS011;7717;47.792;12.076;2022-07-10T07:27:32;5.53;;;5.13;;
15228;SDS011;7717;47.792;12.076;2022-07-10T07:30:00;5.63;;;5.13;;
15228;SDS011;7717;47.792;12.076;2022-07-10T07:32:25;5.73;;;5.23;;
15228;SDS011;7717;47.792;12.076;2022-07-10T07:34:51;5.50;;;5.10;;
15228;SDS011;7717;47.792;12.076;2022-07-10T07:37:16;5.63;;;5.13;;
15228;SDS011;7717;47.792;12.076;2022-07-10T07:39:41;5.30;;;4.90;;
15228;SDS011;7717;47.792;12.076;2022-07-10T07:42:06;5.50;;;5.00;;
15228;SDS011;7717;47.792;12.076;2022-07-10T07:44:32;4.73;;;4.43;;
15228;SDS011;7717;47.792;12.076;2022-07-10T07:46:57;4.90;;;4.60;;
15228;SDS011;7717;47.792;12.076;2022-07-10T07:49:22;5.20;;;4.70;;
15228;SDS011;7717;47.792;12.076;2022-07-10T07:51:47;4.10;;;3.70;;
15228;SDS011;7717;47.792;12.076;2022-07-10T07:54:13;5.00;;;4.27;;
15228;SDS011;7717;47.792;12.076;2022-07-10T07:56:39;4.10;;;3.80;;
15228;SDS011;7717;47.792;12.076;2022-07-10T07:59:04;3.90;;;3.60;;
15228;SDS011;7717;47.792;12.076;2022-07-10T08:01:29;3.77;;;3.47;;
15228;SDS011;7717;47.792;12.076;2022-07-10T08:03:55;3.67;;;3.37;;
15228;SDS011;7717;47.792;12.076;2022-07-10T08:06:20;4.53;;;4.13;;
15228;SDS011;7717;47.792;12.076;2022-07-10T08:08:45;3.83;;;3.63;;
15228;SDS011;7717;47.792;12.076;2022-07-10T08:11:11;3.90;;;3.60;;
15228;SDS011;7717;47.792;12.076;2022-07-10T08:13:36;4.10;;;3.70;;
15228;SDS011;7717;47.792;12.076;2022-07-10T08:16:02;5.57;;;3.83;;
15228;SDS011;7717;47.792;12.076;2022-07-10T08:18:27;3.23;;;3.03;;
15228;SDS011;7717;47.792;12.076;2022-07-10T08:20:52;3.90;;;3.60;;
15228;SDS011;7717;47.792;12.076;2022-07-10T08:23:17;4.20;;;3.40;;
15228;SDS011;7717;47.792;12.076;2022-07-10T08:25:43;4.30;;;3.90;;
15228;SDS011;7717;47.792;12.076;2022-07-10T08:28:08;3.80;;;3.40;;
15228;SDS011;7717;47.792;12.076;2022-07-10T08:30:36;3.90;;;3.60;;
15228;SDS011;7717;47.792;12.076;2022-07-10T08:33:02;3.97;;;3.57;;
15228;SDS011;7717;47.792;12.076;2022-07-10T08:35:27;4.00;;;3.60;;
15228;SDS011;7717;47.792;12.076;2022-07-10T08:37:52;3.67;;;3.37;;
15228;SDS011;7717;47.792;12.076;2022-07-10T08:40:19;4.03;;;3.70;;
15228;SDS011;7717;47.792;12.076;2022-07-10T08:42:46;4.03;;;3.60;;
15228;SDS011;7717;47.792;12.076;2022-07-10T08:45:12;3.90;;;3.60;;
15228;SDS011;7717;47.792;12.076;2022-07-10T08:47:37;4.47;;;3.30;;
15228;SDS011;7717;47.792;12.076;2022-07-10T08:50:27;3.57;;;3.27;;
15228;SDS011;7717;47.792;12.076;2022-07-10T08:53:04;4.00;;;3.70;;
15228;SDS011;7717;47.792;12.076;2022-07-10T08:55:32;4.80;;;3.20;;
15228;SDS011;7717;47.792;12.076;2022-07-10T08:57:58;4.27;;;3.47;;
15228;SDS011;7717;47.792;12.076;2022-07-10T09:00:24;3.40;;;3.20;;
15228;SDS011;7717;47.792;12.076;2022-07-10T09:02:49;3.90;;;3.60;;
15228;SDS011;7717;47.792;12.076;2022-07-10T09:05:14;3.40;;;3.10;;
15228;SDS011;7717;47.792;12.076;2022-07-10T09:07:40;3.07;;;2.80;;
15228;SDS011;7717;47.792;12.076;2022-07-10T09:10:07;4.33;;;3.23;;
15228;SDS011;7717;47.792;12.076;2022-07-10T09:12:48;2.80;;;2.60;;
15228;SDS011;7717;47.792;12.076;2022-07-10T09:15:14;2.40;;;2.20;;
15228;SDS011;7717;47.792;12.076;2022-07-10T09:17:53;2.70;;;2.50;;
15228;SDS011;7717;47.792;12.076;2022-07-10T09:20:29;2.40;;;2.17;;
15228;SDS011;7717;47.792;12.076;2022-07-10T09:22:56;2.80;;;2.60;;
15228;SDS011;7717;47.792;12.076;2022-07-10T09:25:21;3.30;;;2.67;;
15228;SDS011;7717;47.792;12.076;2022-07-10T09:27:53;3.03;;;2.60;;
15228;SDS011;7717;47.792;12.076;2022-07-10T09:30:32;3.17;;;2.60;;
15228;SDS011;7717;47.792;12.076;2022-07-10T09:41:14;2.72;;;2.50;;
15228;SDS011;7717;47.792;12.076;2022-07-10T09:43:43;3.63;;;2.83;;
15228;SDS011;7717;47.792;12.076;2022-07-10T09:46:09;4.00;;;2.70;;
15228;SDS011;7717;47.792;12.076;2022-07-10T09:48:34;3.03;;;2.67;;
15228;SDS011;7717;47.792;12.076;2022-07-10T09:51:00;2.53;;;2.33;;
15228;SDS011;7717;47.792;12.076;2022-07-10T09:53:26;2.60;;;2.23;;
15228;SDS011;7717;47.792;12.076;2022-07-10T09:55:51;2.87;;;2.57;;
15228;SDS011;7717;47.792;12.076;2022-07-10T09:58:16;2.23;;;2.10;;
15228;SDS011;7717;47.792;12.076;2022-07-10T10:00:42;2.03;;;1.93;;
15228;SDS011;7717;47.792;12.076;2022-07-10T10:03:11;2.30;;;2.10;;
15228;SDS011;7717;47.792;12.076;2022-07-10T10:05:55;2.53;;;2.03;;
15228;SDS011;7717;47.792;12.076;2022-07-10T10:08:31;2.90;;;2.70;;
15228;SDS011;7717;47.792;12.076;2022-07-10T10:10:57;1.70;;;1.60;;
15228;SDS011;7717;47.792;12.076;2022-07-10T10:13:23;2.78;;;1.85;;
15228;SDS011;7717;47.792;12.076;2022-07-10T10:15:50;2.10;;;2.00;;
15228;SDS011;7717;47.792;12.076;2022-07-10T10:18:23;4.28;;;2.17;;
15228;SDS011;7717;47.792;12.076;2022-07-10T10:20:49;2.53;;;2.33;;
15228;SDS011;7717;47.792;12.076;2022-07-10T10:23:18;2.92;;;2.72;;
15228;SDS011;7717;47.792;12.076;2022-07-10T10:25:46;2.17;;;2.08;;
15228;SDS011;7717;47.792;12.076;2022-07-10T10:28:12;1.80;;;1.70;;
15228;SDS011;7717;47.792;12.076;2022-07-10T10:30:38;3.25;;;2.17;;
15228;SDS011;7717;47.792;12.076;2022-07-10T10:33:21;2.00;;;1.80;;
15228;SDS011;7717;47.792;12.076;2022-07-10T10:35:49;2.45;;;1.95;;
15228;SDS011;7717;47.792;12.076;2022-07-10T10:38:14;2.42;;;1.70;;
15228;SDS011;7717;47.792;12.076;2022-07-10T10:40:42;2.53;;;2.05;;
15228;SDS011;7717;47.792;12.076;2022-07-10T10:43:21;1.98;;;1.88;;
15228;SDS011;7717;47.792;12.076;2022-07-10T10:45:47;2.22;;;1.73;;
15228;SDS011;7717;47.792;12.076;2022-07-10T10:48:13;2.05;;;1.70;;
15228;SDS011;7717;47.792;12.076;2022-07-10T10:50:46;1.80;;;1.70;;
15228;SDS011;7717;47.792;12.076;2022-07-10T10:53:16;1.50;;;1.40;;
15228;SDS011;7717;47.792;12.076;2022-07-10T10:55:53;1.75;;;1.65;;
15228;SDS011;7717;47.792;12.076;2022-07-10T10:58:27;1.65;;;1.55;;
15228;SDS011;7717;47.792;12.076;2022-07-10T11:01:02;1.63;;;1.52;;
15228;SDS011;7717;47.792;12.076;2022-07-10T11:03:27;1.45;;;1.35;;
15228;SDS011;7717;47.792;12.076;2022-07-10T11:05:53;2.00;;;1.70;;
15228;SDS011;7717;47.792;12.076;2022-07-10T11:11:02;1.92;;;1.60;;
15228;SDS011;7717;47.792;12.076;2022-07-10T11:13:47;2.77;;;1.70;;
15228;SDS011;7717;47.792;12.076;2022-07-10T11:16:12;2.97;;;1.90;;
15228;SDS011;7717;47.792;12.076;2022-07-10T11:18:38;2.50;;;2.07;;
15228;SDS011;7717;47.792;12.076;2022-07-10T11:21:04;3.67;;;2.07;;
15228;SDS011;7717;47.792;12.076;2022-07-10T11:26:19;2.60;;;1.80;;
15228;SDS011;7717;47.792;12.076;2022-07-10T11:31:10;1.80;;;1.70;;
15228;SDS011;7717;47.792;12.076;2022-07-10T11:33:40;1.47;;;1.37;;
15228;SDS011;7717;47.792;12.076;2022-07-10T11:36:11;2.50;;;1.73;;
15228;SDS011;7717;47.792;12.076;2022-07-10T11:38:38;2.55;;;1.40;;
15228;SDS011;7717;47.792;12.076;2022-07-10T11:41:04;4.07;;;1.60;;
15228;SDS011;7717;47.792;12.076;2022-07-10T11:43:29;1.75;;;1.65;;
15228;SDS011;7717;47.792;12.076;2022-07-10T11:45:54;2.08;;;1.48;;
15228;SDS011;7717;47.792;12.076;2022-07-10T11:48:24;1.98;;;1.40;;
15228;SDS011;7717;47.792;12.076;2022-07-10T11:50:49;1.40;;;1.30;;
15228;SDS011;7717;47.792;12.076;2022-07-10T11:53:21;1.13;;;1.13;;
15228;SDS011;7717;47.792;12.076;2022-07-10T11:55:47;1.30;;;1.20;;
15228;SDS011;7717;47.792;12.076;2022-07-10T11:58:17;1.77;;;1.38;;
15228;SDS011;7717;47.792;12.076;2022-07-10T12:00:42;1.60;;;1.50;;
15228;SDS011;7717;47.792;12.076;2022-07-10T12:03:18;2.25;;;1.40;;
15228;SDS011;7717;47.792;12.076;2022-07-10T12:05:44;1.63;;;1.38;;
15228;SDS011;7717;47.792;12.076;2022-07-10T12:08:10;1.55;;;1.45;;
15228;SDS011;7717;47.792;12.076;2022-07-10T12:10:36;1.70;;;1.42;;
15228;SDS011;7717;47.792;12.076;2022-07-10T12:15:30;1.80;;;1.70;;
15228;SDS011;7717;47.792;12.076;2022-07-10T12:17:55;2.38;;;1.20;;
15228;SDS011;7717;47.792;12.076;2022-07-10T12:20:20;1.50;;;1.40;;
15228;SDS011;7717;47.792;12.076;2022-07-10T12:22:45;1.83;;;1.35;;
15228;SDS011;7717;47.792;12.076;2022-07-10T12:25:11;2.42;;;1.38;;
15228;SDS011;7717;47.792;12.076;2022-07-10T12:27:40;4.20;;;1.33;;
15228;SDS011;7717;47.792;12.076;2022-07-10T12:30:05;1.67;;;1.40;;
15228;SDS011;7717;47.792;12.076;2022-07-10T12:32:30;1.42;;;1.20;;
15228;SDS011;7717;47.792;12.076;2022-07-10T12:34:58;1.58;;;1.30;;
15228;SDS011;7717;47.792;12.076;2022-07-10T12:37:23;2.15;;;1.50;;
15228;SDS011;7717;47.792;12.076;2022-07-10T12:39:50;2.33;;;1.40;;
15228;SDS011;7717;47.792;12.076;2022-07-10T12:42:24;1.25;;;1.15;;
15228;SDS011;7717;47.792;12.076;2022-07-10T12:44:49;2.08;;;1.70;;
15228;SDS011;7717;47.792;12.076;2022-07-10T12:47:15;2.60;;;1.50;;
15228;SDS011;7717;47.792;12.076;2022-07-10T12:49:57;1.73;;;1.45;;
15228;SDS011;7717;47.792;12.076;2022-07-10T12:52:27;1.30;;;1.20;;
15228;SDS011;7717;47.792;12.076;2022-07-10T12:57:30;1.50;;;1.40;;
15228;SDS011;7717;47.792;12.076;2022-07-10T13:00:02;2.03;;;1.15;;
15228;SDS011;7717;47.792;12.076;2022-07-10T13:02:29;1.48;;;1.20;;
15228;SDS011;7717;47.792;12.076;2022-07-10T13:04:55;1.60;;;1.38;;
15228;SDS011;7717;47.792;12.076;2022-07-10T13:07:28;1.92;;;1.30;;
15228;SDS011;7717;47.792;12.076;2022-07-10T13:09:53;1.40;;;1.35;;
15228;SDS011;7717;47.792;12.076;2022-07-10T13:12:18;1.50;;;1.25;;
15228;SDS011;7717;47.792;12.076;2022-07-10T13:14:44;1.50;;;1.40;;
15228;SDS011;7717;47.792;12.076;2022-07-10T13:17:09;1.48;;;1.35;;
15228;SDS011;7717;47.792;12.076;2022-07-10T13:19:34;1.40;;;1.30;;
15228;SDS011;7717;47.792;12.076;2022-07-10T13:22:00;1.52;;;1.40;;
15228;SDS011;7717;47.792;12.076;2022-07-10T13:24:25;2.22;;;1.27;;
15228;SDS011;7717;47.792;12.076;2022-07-10T13:26:53;2.15;;;1.25;;
15228;SDS011;7717;47.792;12.076;2022-07-10T13:29:19;1.65;;;1.40;;
15228;SDS011;7717;47.792;12.076;2022-07-10T13:31:44;1.13;;;1.05;;
15228;SDS011;7717;47.792;12.076;2022-07-10T13:34:10;2.15;;;1.60;;
15228;SDS011;7717;47.792;12.076;2022-07-10T13:36:35;1.40;;;1.10;;
15228;SDS011;7717;47.792;12.076;2022-07-10T13:39:01;1.30;;;1.20;;
15228;SDS011;7717;47.792;12.076;2022-07-10T13:41:27;1.35;;;1.25;;
15228;SDS011;7717;47.792;12.076;2022-07-10T13:43:52;1.27;;;1.20;;
15228;SDS011;7717;47.792;12.076;2022-07-10T13:46:17;1.77;;;1.30;;
15228;SDS011;7717;47.792;12.076;2022-07-10T13:48:43;1.65;;;1.25;;
15228;SDS011;7717;47.792;12.076;2022-07-10T13:51:08;1.57;;;1.30;;
15228;SDS011;7717;47.792;12.076;2022-07-10T13:53:33;2.63;;;1.40;;
15228;SDS011;7717;47.792;12.076;2022-07-10T13:55:58;2.28;;;1.42;;
15228;SDS011;7717;47.792;12.076;2022-07-10T13:58:24;1.70;;;1.20;;
15228;SDS011;7717;47.792;12.076;2022-07-10T14:00:49;1.47;;;1.30;;
15228;SDS011;7717;47.792;12.076;2022-07-10T14:03:14;0.90;;;0.90;;
15228;SDS011;7717;47.792;12.076;2022-07-10T14:05:40;1.23;;;1.02;;
15228;SDS011;7717;47.792;12.076;2022-07-10T14:08:05;1.17;;;1.08;;
15228;SDS011;7717;47.792;12.076;2022-07-10T14:10:31;1.17;;;1.10;;
15228;SDS011;7717;47.792;12.076;2022-07-10T14:12:56;2.00;;;1.30;;
15228;SDS011;7717;47.792;12.076;2022-07-10T14:15:21;1.65;;;1.35;;
15228;SDS011;7717;47.792;12.076;2022-07-10T14:17:47;1.90;;;1.33;;
15228;SDS011;7717;47.792;12.076;2022-07-10T14:20:12;1.35;;;1.08;;
15228;SDS011;7717;47.792;12.076;2022-07-10T14:22:37;1.33;;;1.20;;
15228;SDS011;7717;47.792;12.076;2022-07-10T14:25:04;1.55;;;1.30;;
15228;SDS011;7717;47.792;12.076;2022-07-10T14:27:29;1.40;;;1.30;;
15228;SDS011;7717;47.792;12.076;2022-07-10T14:29:56;2.40;;;1.20;;
15228;SDS011;7717;47.792;12.076;2022-07-10T14:32:22;1.92;;;1.17;;
15228;SDS011;7717;47.792;12.076;2022-07-10T14:34:47;1.70;;;1.20;;
15228;SDS011;7717;47.792;12.076;2022-07-10T14:37:12;1.33;;;1.08;;
15228;SDS011;7717;47.792;12.076;2022-07-10T14:39:38;1.02;;;0.93;;
15228;SDS011;7717;47.792;12.076;2022-07-10T14:42:03;1.25;;;1.15;;
15228;SDS011;7717;47.792;12.076;2022-07-10T14:44:30;2.20;;;1.23;;
15228;SDS011;7717;47.792;12.076;2022-07-10T14:46:55;1.27;;;1.17;;
15228;SDS011;7717;47.792;12.076;2022-07-10T14:49:20;1.40;;;1.10;;
15228;SDS011;7717;47.792;12.076;2022-07-10T14:51:45;1.40;;;1.30;;
15228;SDS011;7717;47.792;12.076;2022-07-10T14:54:11;0.88;;;0.88;;
15228;SDS011;7717;47.792;12.076;2022-07-10T14:56:36;1.00;;;1.00;;
15228;SDS011;7717;47.792;12.076;2022-07-10T14:59:01;1.27;;;1.17;;
15228;SDS011;7717;47.792;12.076;2022-07-10T15:01:27;1.05;;;1.05;;
15228;SDS011;7717;47.792;12.076;2022-07-10T15:03:52;2.15;;;1.42;;
15228;SDS011;7717;47.792;12.076;2022-07-10T15:06:20;1.10;;;1.00;;